Time;durP1;ratioP1;P1;durP2;ratioP2;P2;SDS_P1;SDS_P2;PMS_P1;PMS_P2;Temp;Humidity;BMP_temperature;BMP_pressure;BME280_temperature;BME280_humidity;BME280_pressure;Samples;Min_cycle;Max_cycle;Signal;HPM_P1;HPM_P2
2022/01/01 00:00:19;;;;;;;16.52;11.45;;;;;;;9.09;72.74;101661.00;5004806;28;20034;-91
2022/01/01 00:02:51;;;;;;;20.92;12.32;;;;;;;9.38;72.62;101682.31;5014760;28;20040;-90
2022/01/01 00:05:18;;;;;;;18.42;12.27;;;;;;;9.34;72.76;101681.97;5035363;28;20025;-91
2022/01/01 00:07:53;;;;;;;18.45;12.00;;;;;;;9.38;72.34;101668.38;5018883;28;20029;-90
2022/01/01 00:10:21;;;;;;;20.75;12.48;;;;;;;9.32;72.68;101680.94;5012207;28;20021;-91
2022/01/01 00:12:47;;;;;;;17.15;11.05;;;;;;;9.21;73.17;101690.59;4999227;28;20068;-88
2022/01/01 00:15:23;;;;;;;18.98;12.57;;;;;;;9.31;72.93;101689.53;4998336;28;20030;-90
2022/01/01 00:17:49;;;;;;;18.73;12.05;;;;;;;9.23;72.46;101662.00;5007440;28;20029;-89
2022/01/01 00:20:17;;;;;;;18.02;12.00;;;;;;;9.30;72.78;101686.03;4993826;28;20037;-87
2022/01/01 00:22:44;;;;;;;19.33;11.57;;;;;;;9.10;72.89;101652.38;5035333;28;20495;-90
2022/01/01 00:25:31;;;;;;;18.38;11.73;;;;;;;9.33;73.11;101677.53;5035748;28;20033;-89
2022/01/01 00:27:58;;;;;;;19.98;11.68;;;;;;;9.28;72.96;101674.59;4997745;28;20033;-89
2022/01/01 00:30:24;;;;;;;18.33;11.43;;;;;;;9.05;72.76;101631.19;5016570;28;20095;-89
2022/01/01 00:32:50;;;;;;;18.55;11.30;;;;;;;9.11;72.89;101630.75;5006136;28;20496;-89
2022/01/01 00:35:17;;;;;;;16.88;11.68;;;;;;;8.85;73.31;101613.22;5001291;28;20064;-90
2022/01/01 00:37:43;;;;;;;19.90;11.73;;;;;;;8.68;73.05;101568.59;5035491;28;20021;-90
2022/01/01 00:40:09;;;;;;;17.33;11.40;;;;;;;9.12;72.92;101641.31;5031375;28;20034;-90
2022/01/01 00:42:38;;;;;;;17.98;11.55;;;;;;;8.90;73.03;101604.03;4998273;28;20033;-89
2022/01/01 00:45:04;;;;;;;17.55;11.40;;;;;;;9.10;73.05;101635.06;4998127;28;20034;-91
2022/01/01 00:47:33;;;;;;;16.60;11.27;;;;;;;9.23;73.23;101659.41;4998437;28;20384;-91
2022/01/01 00:50:00;;;;;;;17.02;10.88;;;;;;;8.99;73.02;101609.00;4998415;28;20030;-90
2022/01/01 00:52:46;;;;;;;17.30;11.38;;;;;;;9.28;72.94;101652.84;4982861;28;20037;-92
2022/01/01 00:55:12;;;;;;;16.67;11.35;;;;;;;9.14;73.34;101625.75;4997955;28;20570;-89
2022/01/01 00:58:00;;;;;;;18.58;11.95;;;;;;;9.31;72.68;101640.97;4998305;28;20129;-92
2022/01/01 01:00:38;;;;;;;;;;;;;;;9.31;72.96;101643.56;4998498;28;20415;-92
2022/01/01 01:03:16;;;;;;;15.77;10.65;;;;;;;9.34;72.47;101635.06;4997409;28;19918;-91
2022/01/01 01:06:00;;;;;;;19.17;11.52;;;;;;;9.07;72.81;101600.06;4997842;28;20061;-91
2022/01/01 01:08:30;;;;;;;17.23;11.60;;;;;;;9.14;72.79;101608.44;4995039;28;20491;-92
2022/01/01 01:11:09;;;;;;;16.13;11.32;;;;;;;9.08;73.23;101610.59;5017454;28;20187;-91
2022/01/01 01:16:56;;;;;;;16.80;10.65;;;;;;;9.31;72.85;101637.41;5035536;28;20040;-92
2022/01/01 01:19:33;;;;;;;17.55;10.93;;;;;;;9.02;73.42;101609.25;5013110;28;20030;-92
2022/01/01 01:22:15;;;;;;;16.80;10.77;;;;;;;9.05;73.34;101592.13;4997407;28;20112;-91
2022/01/01 01:28:16;;;;;;;17.15;10.63;;;;;;;9.23;73.05;101610.81;5015597;28;20053;-92
2022/01/01 01:30:46;;;;;;;17.33;10.98;;;;;;;9.28;72.47;101595.50;4997669;28;20098;-92
2022/01/01 01:33:29;;;;;;;16.95;10.57;;;;;;;9.24;72.59;101583.94;4997647;28;20124;-91
2022/01/01 01:36:12;;;;;;;16.77;10.80;;;;;;;9.35;72.71;101609.06;4978189;28;20128;-91
2022/01/01 01:38:39;;;;;;;15.63;10.85;;;;;;;9.28;72.93;101619.88;4992377;28;20474;-92
2022/01/01 01:41:13;;;;;;;17.40;11.07;;;;;;;9.11;72.77;101586.47;4981258;28;20036;-92
2022/01/01 01:44:21;;;;;;;15.70;10.35;;;;;;;9.22;72.82;101615.91;4998418;28;20433;-92
2022/01/01 01:47:13;;;;;;;16.25;10.32;;;;;;;9.31;72.86;101606.13;4997330;28;20121;-93
2022/01/01 01:50:07;;;;;;;15.40;10.02;;;;;;;9.30;72.80;101594.81;5014120;28;20065;-93
2022/01/01 01:52:58;;;;;;;16.20;10.77;;;;;;;9.27;73.07;101589.41;5012486;28;20490;-91
2022/01/01 01:55:27;;;;;;;16.15;9.93;;;;;;;9.22;72.88;101582.94;5016715;28;20056;-92
2022/01/01 01:58:11;;;;;;;15.65;10.00;;;;;;;9.29;73.12;101584.28;4996296;28;20031;-92
2022/01/01 02:04:11;;;;;;;16.60;9.80;;;;;;;9.24;72.51;101554.38;5014708;28;20099;-91
2022/01/01 02:07:00;;;;;;;15.60;10.07;;;;;;;9.39;72.30;101578.94;5004747;28;20043;-91
2022/01/01 02:09:26;;;;;;;16.98;10.02;;;;;;;9.28;72.32;101565.13;5010044;28;20042;-91
2022/01/01 02:12:02;;;;;;;15.27;9.82;;;;;;;9.36;72.60;101576.13;5009810;28;20033;-90
2022/01/01 02:14:54;;;;;;;15.73;10.13;;;;;;;9.20;72.99;101560.16;5009857;28;20030;-91
2022/01/01 02:17:23;;;;;;;15.65;10.00;;;;;;;9.25;72.65;101556.19;4976474;28;20097;-90
2022/01/01 02:20:00;;;;;;;14.23;9.55;;;;;;;9.27;72.53;101549.38;4977117;28;20089;-91
2022/01/01 02:22:37;;;;;;;15.73;9.77;;;;;;;9.15;73.10;101545.09;5004620;28;20080;-88
2022/01/01 02:25:06;;;;;;;;;;;;;;;9.42;72.42;101560.91;4997356;28;20025;-91
2022/01/01 02:27:37;;;;;;;15.68;9.88;;;;;;;9.15;72.90;101554.63;4994985;28;19918;-91
2022/01/01 02:30:10;;;;;;;14.50;9.52;;;;;;;9.22;72.91;101555.97;4996358;28;20080;-90
2022/01/01 02:32:43;;;;;;;14.00;9.32;;;;;;;9.19;73.09;101547.94;5012676;28;20096;-91
2022/01/01 02:35:13;;;;;;;14.23;9.68;;;;;;;9.25;72.19;101530.13;4996385;28;20030;-91
2022/01/01 02:37:41;;;;;;;15.70;10.50;;;;;;;9.02;72.29;101476.38;4995960;28;20133;-90
2022/01/01 02:40:10;;;;;;;13.55;9.38;;;;;;;9.37;72.42;101546.63;4996363;28;20092;-89
2022/01/01 02:42:53;;;;;;;14.43;9.77;;;;;;;9.29;72.36;101516.50;4996190;28;20029;-90
2022/01/01 02:45:35;;;;;;;14.13;9.68;;;;;;;9.22;72.35;101502.13;5012790;28;20068;-90
2022/01/01 02:48:02;;;;;;;15.10;9.60;;;;;;;9.18;72.77;101502.72;5011490;28;20117;-91
2022/01/01 02:50:43;;;;;;;12.77;8.73;;;;;;;9.26;72.73;101527.63;4996163;28;20033;-91
2022/01/01 02:53:17;;;;;;;14.07;9.50;;;;;;;8.93;72.67;101467.13;4996727;28;20029;-91
2022/01/01 02:55:44;;;;;;;14.13;9.48;;;;;;;9.16;72.44;101494.81;5011805;28;20025;-89
2022/01/01 02:58:16;;;;;;;13.30;9.00;;;;;;;9.16;72.77;101505.22;4995907;28;20095;-89
2022/01/01 03:00:43;;;;;;;14.25;9.40;;;;;;;9.32;72.49;101521.97;4983655;28;20033;-90
2022/01/01 03:03:15;;;;;;;12.45;9.02;;;;;;;9.09;72.76;101486.44;5012661;28;20041;-89
2022/01/01 03:05:40;;;;;;;14.73;9.23;;;;;;;9.17;72.11;101480.97;4995279;28;20427;-89
2022/01/01 03:08:06;;;;;;;14.40;9.27;;;;;;;9.30;72.33;101497.47;5012783;28;20037;-87
2022/01/01 03:10:35;;;;;;;11.90;8.65;;;;;;;9.34;72.47;101507.34;5011685;28;20033;-87
2022/01/01 03:13:01;;;;;;;15.55;9.40;;;;;;;9.28;72.58;101501.69;5011579;28;20393;-88
2022/01/01 03:15:28;;;;;;;13.75;9.52;;;;;;;9.16;72.39;101487.00;5006352;28;20032;-90
2022/01/01 03:17:55;;;;;;;12.93;8.48;;;;;;;9.04;72.42;101454.84;5026221;28;20462;-89
2022/01/01 03:20:21;;;;;;;13.70;9.00;;;;;;;9.38;72.12;101512.88;4998620;28;20104;-89
2022/01/01 03:22:50;;;;;;;12.68;8.80;;;;;;;9.49;72.22;101523.16;4994251;28;20583;-89
2022/01/01 03:25:20;;;;;;;15.35;9.38;;;;;;;9.54;71.80;101526.97;4995288;28;20037;-89
2022/01/01 03:27:49;;;;;;;14.52;9.23;;;;;;;9.45;72.31;101522.00;4996541;28;20048;-91
2022/01/01 03:30:22;;;;;;;13.35;8.98;;;;;;;9.19;72.30;101495.81;4995236;28;20036;-88
2022/01/01 03:32:50;;;;;;;14.30;9.15;;;;;;;9.15;72.45;101499.91;4995420;28;20507;-88
2022/01/01 03:35:17;;;;;;;13.48;9.52;;;;;;;9.27;72.53;101508.59;5011695;28;20022;-89
2022/01/01 03:37:44;;;;;;;13.18;8.50;;;;;;;9.15;72.60;101487.78;5012477;28;20113;-88
2022/01/01 03:40:10;;;;;;;13.85;9.50;;;;;;;9.00;72.41;101464.94;4994905;28;20392;-90
2022/01/01 03:42:35;;;;;;;15.30;9.45;;;;;;;9.31;72.42;101504.50;4994976;28;20423;-91
2022/01/01 03:45:03;;;;;;;13.40;8.88;;;;;;;9.08;72.47;101489.81;5011921;28;20476;-91
2022/01/01 03:47:30;;;;;;;14.25;9.05;;;;;;;9.12;72.52;101491.84;4992316;28;20033;-90
2022/01/01 03:50:01;;;;;;;13.02;9.10;;;;;;;9.31;72.75;101531.47;5011591;28;20038;-90
2022/01/01 03:52:27;;;;;;;14.75;9.65;;;;;;;9.09;72.35;101479.53;4996687;28;20495;-90
2022/01/01 03:55:17;;;;;;;13.55;8.80;;;;;;;9.29;72.67;101526.94;5014776;28;20030;-90
2022/01/01 03:58:00;;;;;;;13.55;8.65;;;;;;;9.25;72.14;101496.22;5014506;28;20045;-91
2022/01/01 04:00:33;;;;;;;13.60;9.35;;;;;;;9.42;72.37;101520.88;5014903;28;20124;-91
2022/01/01 04:03:41;;;;;;;12.57;8.70;;;;;;;9.36;72.67;101527.50;5014954;28;20029;-91
2022/01/01 04:06:18;;;;;;;14.32;9.55;;;;;;;9.15;72.73;101499.91;5015123;28;20063;-93
2022/01/01 04:08:47;;;;;;;14.38;8.95;;;;;;;9.13;73.30;101518.03;5011719;28;20044;-92
2022/01/01 04:11:14;;;;;;;13.10;8.88;;;;;;;8.96;73.54;101503.78;5011869;28;20164;-91
2022/01/01 04:13:48;;;;;;;13.90;9.63;;;;;;;9.30;72.99;101526.16;5012926;28;20104;-92
2022/01/01 04:16:28;;;;;;;13.32;9.23;;;;;;;9.23;72.83;101518.66;4995799;28;20101;-91
2022/01/01 04:18:58;;;;;;;16.77;9.73;;;;;;;9.10;72.58;101496.97;4995586;28;20403;-92
2022/01/01 04:21:26;;;;;;;15.23;9.20;;;;;;;8.82;73.40;101459.31;4995169;28;20480;-91
2022/01/01 04:23:53;;;;;;;15.75;9.77;;;;;;;9.11;73.10;101505.69;5011559;28;20026;-91
2022/01/01 04:26:39;;;;;;;14.07;9.10;;;;;;;9.24;72.96;101529.22;4995149;28;20396;-93
2022/01/01 04:29:15;;;;;;;12.85;8.43;;;;;;;9.05;73.59;101526.09;5013845;28;20491;-91
2022/01/01 04:31:47;;;;;;;14.30;9.65;;;;;;;9.11;73.69;101532.66;5014621;28;20431;-91
2022/01/01 04:34:23;;;;;;;17.17;9.40;;;;;;;9.17;73.28;101524.38;5014896;28;20031;-93
2022/01/01 04:37:01;;;;;;;12.40;8.65;;;;;;;9.17;72.49;101501.81;5031272;28;20032;-90
2022/01/01 04:39:32;;;;;;;12.88;9.00;;;;;;;8.69;73.63;101457.53;4998987;28;20116;-91
2022/01/01 04:42:05;;;;;;;12.73;8.93;;;;;;;8.89;73.04;101485.00;4978662;28;20508;-92
2022/01/01 04:44:44;;;;;;;14.73;9.13;;;;;;;9.01;73.39;101506.72;5011101;28;20454;-90
2022/01/01 04:47:36;;;;;;;15.27;9.48;;;;;;;9.14;73.22;101534.56;4995021;28;20026;-92
2022/01/01 04:50:09;;;;;;;13.35;9.07;;;;;;;9.08;73.47;101501.19;4996209;28;20033;-91
2022/01/01 04:52:38;;;;;;;14.75;9.27;;;;;;;9.00;73.30;101491.00;5014925;28;20033;-92
2022/01/01 04:55:04;;;;;;;13.48;8.82;;;;;;;8.99;73.38;101489.16;4998202;28;20115;-91
2022/01/01 04:57:33;;;;;;;13.63;9.15;;;;;;;9.10;73.35;101519.50;4998032;28;20128;-91
2022/01/01 05:00:17;;;;;;;12.35;8.23;;;;;;;9.05;73.91;101527.00;5031015;28;20458;-93
2022/01/01 05:02:43;;;;;;;13.27;8.80;;;;;;;8.81;73.16;101462.72;5013464;28;20084;-89
2022/01/01 05:05:15;;;;;;;13.10;9.00;;;;;;;9.05;73.95;101533.91;5031885;28;20049;-90
2022/01/01 05:07:43;;;;;;;13.52;9.25;;;;;;;8.92;73.25;101493.94;5017276;28;20033;-91
2022/01/01 05:10:17;;;;;;;14.32;9.38;;;;;;;9.14;73.27;101531.94;5017743;28;20025;-92
2022/01/01 05:12:46;;;;;;;14.35;9.05;;;;;;;9.17;73.45;101524.38;5014073;28;20034;-91
2022/01/01 05:15:39;;;;;;;12.68;8.35;;;;;;;9.03;73.87;101528.56;4998183;28;20103;-92
2022/01/01 05:18:18;;;;;;;14.40;9.32;;;;;;;8.98;73.27;101493.50;5014495;28;20032;-92
2022/01/01 05:21:03;;;;;;;13.68;9.05;;;;;;;9.12;73.62;101531.88;5014236;28;20087;-91
2022/01/01 05:24:17;;;;;;;14.45;9.45;;;;;;;9.19;73.44;101520.19;5017359;28;20038;-91
2022/01/01 05:27:26;;;;;;;15.32;8.80;;;;;;;9.06;73.69;101521.00;5017356;28;20093;-91
2022/01/01 05:29:54;;;;;;;13.85;8.85;;;;;;;9.05;73.27;101497.44;5017480;28;20048;-91
2022/01/01 05:35:42;;;;;;;13.45;8.57;;;;;;;9.17;73.47;101522.66;5015887;28;20049;-91
2022/01/01 05:38:07;;;;;;;12.73;8.60;;;;;;;8.98;73.39;101492.59;4997349;28;20053;-90
2022/01/01 05:40:42;;;;;;;13.68;8.70;;;;;;;9.04;73.82;101537.28;4997292;28;20484;-89
2022/01/01 05:43:13;;;;;;;13.02;9.00;;;;;;;9.02;73.89;101520.69;4997151;28;20058;-91
2022/01/01 05:45:43;;;;;;;13.75;8.75;;;;;;;9.07;73.07;101507.16;4998524;28;20480;-90
2022/01/01 05:48:12;;;;;;;12.70;8.90;;;;;;;9.14;72.95;101517.25;5016808;28;20056;-90
2022/01/01 05:50:47;;;;;;;14.27;9.13;;;;;;;9.16;73.41;101522.53;5016894;28;20475;-91
2022/01/01 05:53:21;;;;;;;14.57;8.85;;;;;;;9.13;73.04;101512.81;5000221;28;20055;-90
2022/01/01 05:55:53;;;;;;;13.27;8.98;;;;;;;9.10;73.44;101529.91;5030224;28;20033;-91
2022/01/01 05:58:27;;;;;;;13.75;9.00;;;;;;;9.06;73.73;101522.69;5001398;28;20141;-91
2022/01/01 06:01:02;;;;;;;14.07;8.77;;;;;;;8.84;73.22;101458.63;5012122;28;20025;-91
2022/01/01 06:03:41;;;;;;;14.90;9.07;;;;;;;9.08;72.60;101480.31;5014694;28;20049;-91
2022/01/01 06:06:07;;;;;;;14.20;9.60;;;;;;;8.91;72.88;101476.53;4981829;28;20118;-92
2022/01/01 06:08:39;;;;;;;17.02;9.25;;;;;;;8.90;73.52;101513.75;4997035;28;20120;-91
2022/01/01 06:11:16;;;;;;;13.75;8.95;;;;;;;9.07;73.68;101537.53;4997412;28;20037;-92
2022/01/01 06:14:06;;;;;;;13.73;9.07;;;;;;;9.16;73.52;101538.19;4997048;28;20081;-92
2022/01/01 06:16:53;;;;;;;15.25;9.35;;;;;;;9.11;73.57;101539.56;4996851;28;20053;-92
2022/01/01 06:19:21;;;;;;;;;;;;;;;9.12;73.54;101537.06;5016102;28;20037;-92
2022/01/01 06:22:05;;;;;;;14.07;9.05;;;;;;;9.21;73.29;101526.41;5033062;28;19916;-91
2022/01/01 06:24:40;;;;;;;14.70;9.10;;;;;;;9.04;72.96;101499.13;5016370;28;20037;-93
2022/01/01 06:27:06;;;;;;;14.70;9.55;;;;;;;9.12;73.14;101526.66;5016231;28;20415;-90
2022/01/01 06:29:35;;;;;;;13.38;8.95;;;;;;;8.90;73.59;101500.72;4982200;28;20139;-90
2022/01/01 06:32:04;;;;;;;14.88;9.77;;;;;;;9.00;73.53;101512.75;4996205;28;20064;-89
2022/01/01 06:34:29;;;;;;;15.23;9.45;;;;;;;8.90;73.99;101510.25;5000716;28;20034;-90
2022/01/01 06:37:00;;;;;;;13.27;9.00;;;;;;;8.94;73.44;101505.38;4995989;28;20092;-90
2022/01/01 06:39:26;;;;;;;15.23;9.60;;;;;;;9.09;73.83;101541.16;4979755;28;20419;-90
2022/01/01 06:41:51;;;;;;;13.77;9.68;;;;;;;8.88;73.84;101501.44;4996181;28;20096;-91
2022/01/01 06:44:17;;;;;;;14.48;9.27;;;;;;;8.92;73.83;101517.38;4996526;28;20565;-91
2022/01/01 06:46:43;;;;;;;13.35;8.85;;;;;;;9.05;73.73;101540.00;5008387;28;20490;-90
2022/01/01 06:49:09;;;;;;;12.20;8.85;;;;;;;8.83;73.56;101488.06;5032418;28;20422;-92
2022/01/01 06:51:39;;;;;;;15.05;9.35;;;;;;;8.88;73.58;101509.25;5015426;28;20113;-92
2022/01/01 06:54:06;;;;;;;13.57;9.18;;;;;;;8.84;73.89;101526.34;5025979;28;20095;-87
2022/01/01 06:56:32;;;;;;;13.82;9.35;;;;;;;8.86;73.87;101521.25;5012792;28;20141;-91
2022/01/01 06:58:58;;;;;;;15.65;9.85;;;;;;;9.06;73.85;101553.94;4999332;28;20065;-92
2022/01/01 07:01:24;;;;;;;15.65;9.07;;;;;;;8.83;73.99;101511.50;4999367;28;20044;-94
2022/01/01 07:04:01;;;;;;;14.23;9.70;;;;;;;8.85;73.83;101515.13;5013086;28;20079;-93
2022/01/01 07:06:27;;;;;;;;;;;;;;;9.05;73.74;101550.44;5018030;28;20032;-91
2022/01/01 07:08:52;;;;;;;15.70;8.93;;;;;;;9.02;73.76;101536.31;5014580;28;19912;-89
2022/01/01 07:11:18;;;;;;;16.27;8.82;;;;;;;8.87;74.03;101515.22;4998815;28;20403;-91
2022/01/01 07:13:48;;;;;;;12.85;8.98;;;;;;;8.70;73.97;101478.47;5015078;28;20561;-94
2022/01/01 07:16:13;;;;;;;15.27;9.10;;;;;;;8.84;74.18;101517.63;5001193;28;20060;-92
2022/01/01 07:18:44;;;;;;;13.38;9.35;;;;;;;8.83;73.85;101514.13;4999648;28;20061;-94
2022/01/01 07:21:12;;;;;;;13.43;8.55;;;;;;;8.77;74.67;101521.47;5010517;28;20411;-93
2022/01/01 07:23:42;;;;;;;12.00;8.25;;;;;;;8.64;74.44;101491.03;4995703;28;20033;-91
2022/01/01 07:26:08;;;;;;;12.68;8.73;;;;;;;8.79;74.16;101503.38;4990873;28;20507;-92
2022/01/01 07:28:38;;;;;;;13.75;8.98;;;;;;;8.59;74.47;101481.06;5015716;28;20033;-94
2022/01/01 07:31:06;;;;;;;12.85;8.43;;;;;;;8.70;74.64;101506.19;5003676;28;20125;-91
2022/01/01 07:33:40;;;;;;;14.27;8.32;;;;;;;8.91;74.16;101535.50;4995493;28;20041;-91
2022/01/01 07:36:06;;;;;;;13.93;9.13;;;;;;;8.93;74.25;101533.91;4995222;28;20026;-91
2022/01/01 07:38:35;;;;;;;12.98;8.32;;;;;;;8.90;74.22;101531.09;5008342;28;20021;-90
2022/01/01 07:41:01;;;;;;;12.77;8.48;;;;;;;8.67;74.56;101513.78;5031168;28;20116;-89
2022/01/01 07:43:29;;;;;;;13.65;8.93;;;;;;;8.83;74.56;101536.66;5014737;28;20120;-90
2022/01/01 07:45:56;;;;;;;11.90;8.50;;;;;;;8.70;74.63;101504.50;5012545;28;20017;-90
2022/01/01 07:48:23;;;;;;;12.98;8.80;;;;;;;8.75;74.67;101529.16;4994811;28;20034;-89
2022/01/01 07:50:51;;;;;;;11.98;8.27;;;;;;;8.80;74.91;101552.03;4995090;28;20034;-91
2022/01/01 07:56:52;;;;;;;11.95;8.30;;;;;;;8.84;74.95;101549.78;5009304;28;22056;-94
2022/01/01 07:59:23;;;;;;;12.23;8.23;;;;;;;8.81;74.93;101541.75;5010370;28;20111;-93
2022/01/01 08:01:52;;;;;;;13.35;8.00;;;;;;;8.68;74.50;101507.81;4992270;28;20030;-91
2022/01/01 08:04:17;;;;;;;12.25;8.02;;;;;;;8.52;74.91;101511.84;5004547;28;20025;-88
2022/01/01 08:06:43;;;;;;;13.40;8.45;;;;;;;8.74;74.86;101548.22;5031583;28;20024;-89
2022/01/01 08:09:10;;;;;;;11.27;7.75;;;;;;;8.86;74.44;101557.72;5032027;28;20056;-89
2022/01/01 08:11:38;;;;;;;12.43;7.57;;;;;;;8.66;74.68;101525.91;5013814;28;20029;-90
2022/01/01 08:14:04;;;;;;;11.98;8.10;;;;;;;8.76;74.99;101550.91;5007185;28;20041;-88
2022/01/01 08:16:29;;;;;;;11.73;8.13;;;;;;;8.63;75.09;101537.78;4986185;28;20053;-88
2022/01/01 08:18:55;;;;;;;13.00;8.65;;;;;;;8.75;74.63;101542.19;5027608;28;20033;-88
2022/01/01 08:21:21;;;;;;;11.23;7.82;;;;;;;8.48;74.74;101493.28;5022231;28;20030;-87
2022/01/01 08:24:01;;;;;;;10.80;7.40;;;;;;;8.44;74.85;101502.56;5022893;28;20518;-91
2022/01/01 08:26:27;;;;;;;12.63;8.27;;;;;;;8.76;74.47;101524.88;5000630;28;20120;-89
2022/01/01 08:28:56;;;;;;;11.40;8.23;;;;;;;8.88;74.62;101545.72;4997284;28;20032;-89
2022/01/01 08:31:23;;;;;;;11.80;8.05;;;;;;;8.87;74.59;101563.03;4999583;28;20099;-90
2022/01/01 08:33:51;;;;;;;10.93;7.45;;;;;;;8.83;74.47;101529.75;4998803;28;20422;-91
2022/01/01 08:36:48;;;;;;;11.40;7.88;;;;;;;9.00;74.44;101563.94;5004323;28;20031;-92
2022/01/01 08:39:47;;;;;;;11.20;7.53;;;;;;;8.90;74.82;101562.34;5015109;28;20045;-93
2022/01/01 08:42:15;;;;;;;11.40;7.55;;;;;;;8.53;74.59;101502.38;5013528;28;20069;-91
2022/01/01 08:44:43;;;;;;;10.48;7.20;;;;;;;8.66;74.86;101532.81;5016826;28;20040;-92
2022/01/01 08:47:09;;;;;;;12.73;7.40;;;;;;;8.84;75.08;101564.50;5015228;28;20037;-88
2022/01/01 08:49:35;;;;;;;10.82;7.53;;;;;;;9.04;73.92;101552.91;4994905;28;20034;-89
2022/01/01 08:52:04;;;;;;;10.43;7.55;;;;;;;8.98;73.82;101547.28;4997873;28;20518;-92
2022/01/01 08:54:30;;;;;;;10.70;7.43;;;;;;;8.85;74.63;101549.00;5011548;28;20037;-90
2022/01/01 08:56:59;;;;;;;11.13;7.60;;;;;;;8.82;74.55;101530.53;5020172;28;20022;-91
2022/01/01 08:59:38;;;;;;;11.88;8.07;;;;;;;8.74;74.69;101523.84;4994301;28;20415;-92
2022/01/01 09:02:26;;;;;;;11.85;8.07;;;;;;;8.83;75.10;101561.00;4979487;28;20503;-93
2022/01/01 09:04:53;;;;;;;13.45;7.75;;;;;;;8.66;75.39;101532.81;4981489;28;20130;-92
2022/01/01 09:07:27;;;;;;;11.07;7.72;;;;;;;8.71;74.92;101542.75;4979980;28;20514;-91
2022/01/01 09:10:01;;;;;;;11.98;8.00;;;;;;;8.66;75.13;101533.72;5012381;28;20033;-92
2022/01/01 09:12:31;;;;;;;12.60;8.27;;;;;;;8.74;75.09;101536.88;4997994;28;20049;-94
2022/01/01 09:14:58;;;;;;;13.48;8.60;;;;;;;8.71;75.06;101519.31;4980854;28;20034;-93
2022/01/01 09:17:45;;;;;;;11.95;8.35;;;;;;;9.02;75.02;101560.66;4977936;28;20033;-90
2022/01/01 09:23:14;;;;;;;13.15;8.32;;;;;;;8.55;75.13;101499.09;4995837;28;20007;-92
2022/01/01 09:25:39;;;;;;;14.80;8.55;;;;;;;8.75;75.12;101530.88;4977657;28;20057;-92
2022/01/01 09:28:06;;;;;;;13.77;8.82;;;;;;;8.95;74.94;101561.91;4993757;28;20117;-89
2022/01/01 09:30:41;;;;;;;11.10;7.72;;;;;;;8.84;74.89;101520.22;5001519;28;20034;-88
2022/01/01 09:33:12;;;;;;;12.48;8.00;;;;;;;8.70;75.10;101514.94;4981829;28;20026;-91
2022/01/01 09:35:38;;;;;;;12.82;8.50;;;;;;;8.91;75.05;101541.63;4992068;28;20044;-91
2022/01/01 09:38:09;;;;;;;12.45;8.57;;;;;;;8.87;75.17;101538.66;4999327;28;20018;-96
2022/01/01 09:40:35;;;;;;;14.20;9.20;;;;;;;8.77;74.65;101485.03;5167538;23;20593;-91
2022/01/01 09:48:59;;;;;;;14.70;8.60;;;;;;;8.72;74.91;101475.94;5328047;22;20058;-93
2022/01/01 09:51:35;;;;;;;13.07;8.15;;;;;;;8.53;75.62;101468.53;5019074;28;20086;-95
2022/01/01 09:54:37;;;;;;;14.27;8.68;;;;;;;8.84;75.34;101510.72;5006872;28;20032;-94
2022/01/01 09:57:04;;;;;;;13.02;7.95;;;;;;;8.73;75.23;101483.88;5037324;28;20057;-94
2022/01/01 09:59:34;;;;;;;11.95;8.43;;;;;;;8.83;75.49;101508.91;5064451;23;20061;-94
2022/01/01 10:02:02;;;;;;;11.95;8.45;;;;;;;8.89;74.82;101495.41;5028157;28;20113;-91
2022/01/01 10:04:52;;;;;;;14.18;9.10;;;;;;;8.92;75.42;101491.34;5015696;28;20025;-91
2022/01/01 10:07:28;;;;;;;13.77;9.00;;;;;;;8.75;75.72;101494.41;5011602;28;20490;-92
2022/01/01 10:10:25;;;;;;;21.05;9.93;;;;;;;8.92;75.57;101506.97;5046952;28;20021;-91
2022/01/01 10:13:37;;;;;;;13.27;8.60;;;;;;;9.04;74.84;101516.44;4999932;28;20051;-90
2022/01/01 10:16:12;;;;;;;13.70;9.00;;;;;;;9.04;74.97;101508.63;5016490;28;20055;-91
2022/01/01 10:18:45;;;;;;;13.23;9.20;;;;;;;8.92;75.25;101499.16;4999979;28;20556;-91
2022/01/01 10:21:51;;;;;;;13.13;9.38;;;;;;;9.04;74.90;101500.81;5016300;28;20025;-92
2022/01/01 10:24:24;;;;;;;13.98;8.98;;;;;;;9.01;75.26;101498.91;5015512;28;20055;-87
2022/01/01 10:29:35;;;;;;;14.65;9.35;;;;;;;8.93;74.99;101476.59;5025895;28;20090;-87
2022/01/01 10:32:08;;;;;;;12.23;8.63;;;;;;;9.00;74.65;101488.41;5028396;28;20036;-86
2022/01/01 10:34:36;;;;;;;12.45;8.75;;;;;;;8.69;75.33;101460.13;5041347;28;20031;-86
2022/01/01 10:37:06;;;;;;;13.88;9.10;;;;;;;8.83;74.49;101440.31;5032290;28;20032;-86
2022/01/01 10:39:32;;;;;;;14.30;9.07;;;;;;;9.11;74.58;101501.38;5042432;28;20108;-87
2022/01/01 10:41:59;;;;;;;14.07;9.07;;;;;;;9.21;74.07;101484.72;5033427;28;20123;-88
2022/01/01 10:44:37;;;;;;;14.10;9.75;;;;;;;9.19;73.98;101474.97;5041239;28;20040;-89
2022/01/01 10:47:20;;;;;;;13.88;8.90;;;;;;;8.99;74.43;101474.44;5033963;28;20136;-89
2022/01/01 10:52:27;;;;;;;15.57;9.23;;;;;;;9.06;75.06;101486.19;5025982;28;20029;-88
2022/01/01 10:54:54;;;;;;;14.43;9.32;;;;;;;9.22;74.38;101498.63;5034949;28;20048;-88
2022/01/01 10:57:33;;;;;;;14.68;9.00;;;;;;;9.10;74.85;101496.03;5029563;28;20055;-89
2022/01/01 11:00:47;;;;;;;13.05;8.95;;;;;;;9.29;74.20;101478.34;5048236;28;20069;-93
2022/01/01 11:03:56;;;;;;;14.52;9.23;;;;;;;9.18;74.49;101476.66;5043796;28;20033;-95
2022/01/01 11:06:34;;;;;;;15.40;9.35;;;;;;;9.12;74.08;101438.06;5033359;28;20033;-93
2022/01/01 11:09:13;;;;;;;15.70;9.48;;;;;;;9.29;74.13;101466.97;5031757;28;20105;-92
2022/01/01 11:11:39;;;;;;;14.57;9.80;;;;;;;9.08;73.80;101428.22;5028804;28;20040;-89
2022/01/01 11:14:08;;;;;;;13.77;8.93;;;;;;;9.16;74.43;101450.50;4998274;28;20033;-88
2022/01/01 11:16:34;;;;;;;13.75;9.07;;;;;;;9.34;74.11;101469.13;5045405;28;20630;-88
2022/01/01 11:19:01;;;;;;;14.10;9.38;;;;;;;9.29;74.18;101451.34;5031842;28;20131;-88
2022/01/01 11:21:26;;;;;;;12.85;8.90;;;;;;;8.76;74.90;101392.97;5020943;28;20032;-86
2022/01/01 11:23:53;;;;;;;13.32;8.73;;;;;;;8.99;73.86;101398.91;5035968;28;20033;-88
2022/01/01 11:26:24;;;;;;;14.75;9.18;;;;;;;9.14;74.16;101444.28;5018663;28;20037;-89
2022/01/01 11:28:49;;;;;;;15.05;8.65;;;;;;;9.18;74.49;101450.59;5027691;28;20037;-89
2022/01/01 11:31:16;;;;;;;13.95;9.75;;;;;;;8.84;74.38;101406.53;5033724;28;20036;-89
2022/01/01 11:33:51;;;;;;;13.25;8.93;;;;;;;9.00;74.63;101424.16;5017859;28;20059;-89
2022/01/01 11:36:23;;;;;;;13.90;9.13;;;;;;;8.96;74.50;101409.13;5034357;28;20029;-88
2022/01/01 11:38:52;;;;;;;13.35;8.98;;;;;;;9.26;73.81;101418.16;5029869;28;20446;-91
2022/01/01 11:41:22;;;;;;;14.40;9.60;;;;;;;9.35;74.19;101452.69;5028369;28;20035;-89
2022/01/01 11:43:51;;;;;;;13.30;9.55;;;;;;;8.94;74.74;101402.88;5031028;28;20040;-89
2022/01/01 11:46:24;;;;;;;12.70;8.95;;;;;;;9.08;74.54;101409.97;4997950;28;20029;-88
2022/01/01 11:49:01;;;;;;;15.40;9.90;;;;;;;9.24;74.86;101443.22;5031288;28;20574;-90
2022/01/01 11:51:38;;;;;;;13.82;9.32;;;;;;;9.26;74.98;101454.66;5014550;28;20083;-90
2022/01/01 11:54:11;;;;;;;15.02;9.38;;;;;;;9.24;75.10;101450.13;5026181;28;20090;-90
2022/01/01 11:56:51;;;;;;;17.42;9.80;;;;;;;9.22;75.23;101451.72;5026462;28;20064;-90
2022/01/01 11:59:20;;;;;;;14.23;9.50;;;;;;;9.27;74.96;101429.47;5049292;28;20487;-89
2022/01/01 12:01:46;;;;;;;14.30;9.93;;;;;;;8.89;75.00;101380.81;5022813;28;20415;-88
2022/01/01 12:04:46;;;;;;;13.57;9.05;;;;;;;9.20;75.60;101446.41;5034955;28;20041;-89
2022/01/01 12:07:18;;;;;;;15.07;9.73;;;;;;;9.13;75.64;101447.69;4987924;28;20033;-88
2022/01/01 12:10:06;;;;;;;15.02;9.75;;;;;;;8.68;76.01;101362.00;5051040;28;20513;-88
2022/01/01 12:12:51;;;;;;;14.70;9.38;;;;;;;9.09;76.41;101427.41;5051318;28;20033;-88
2022/01/01 12:15:16;;;;;;;16.77;9.48;;;;;;;9.34;75.18;101431.75;5036429;28;20055;-89
2022/01/01 12:17:43;;;;;;;14.20;9.48;;;;;;;9.17;74.75;101400.19;5055277;28;20490;-88
2022/01/01 12:20:20;;;;;;;15.45;9.93;;;;;;;9.42;74.69;101430.56;5020972;28;20043;-87
2022/01/01 12:22:49;;;;;;;16.17;10.13;;;;;;;9.41;74.63;101433.97;5037382;28;20025;-88